Time;durP1;ratioP1;P1;durP2;ratioP2;P2;SDS_P1;SDS_P2;PMS_P1;PMS_P2;Temp;Humidity;BMP_temperature;BMP_pressure;BME280_temperature;BME280_humidity;BME280_pressure;Samples;Min_cycle;Max_cycle;Signal;HPM_P1;HPM_P2
2022/10/18 00:00:10;;;;;;;10.70;8.43;;;16.50;99.90;15.90;100941;;;;561535;252;24252;-76
2022/10/18 00:02:38;;;;;;;13.97;9.67;;;16.50;99.90;15.90;100946;;;;553997;255;24198;-75
2022/10/18 00:05:06;;;;;;;11.90;8.93;;;16.50;99.90;15.90;100947;;;;553752;255;24205;-74
2022/10/18 00:07:34;;;;;;;13.97;8.23;;;16.50;99.90;15.90;100944;;;;561584;252;24162;-75
2022/10/18 00:10:02;;;;;;;11.20;8.70;;;16.50;99.90;15.90;100944;;;;552051;259;24182;-75
2022/10/18 00:12:30;;;;;;;10.80;8.33;;;16.50;99.90;15.90;100948;;;;533536;261;24212;-79
2022/10/18 00:14:58;;;;;;;9.80;8.80;;;16.50;99.90;15.90;100946;;;;533497;264;24209;-78
2022/10/18 00:17:26;;;;;;;15.23;9.67;;;16.50;99.90;15.90;100954;;;;535940;265;24225;-78
2022/10/18 00:19:53;;;;;;;9.93;8.37;;;16.50;99.90;15.90;100946;;;;533499;264;24280;-79
2022/10/18 00:22:21;;;;;;;9.63;8.63;;;16.50;99.90;16.00;100950;;;;536067;265;24202;-79
2022/10/18 00:24:49;;;;;;;12.75;10.93;;;16.50;99.90;16.00;100950;;;;528888;264;57836;-79
2022/10/18 00:27:17;;;;;;;13.60;9.77;;;16.60;99.90;15.90;100949;;;;545533;260;24218;-79
2022/10/18 00:29:45;;;;;;;8.90;8.00;;;16.60;99.90;16.00;100957;;;;533087;265;24249;-77
2022/10/18 00:32:13;;;;;;;10.53;6.17;;;16.60;99.90;16.00;100959;;;;533539;264;24244;-76
2022/10/18 00:34:41;;;;;;;8.80;6.37;;;16.60;99.90;16.10;100957;;;;536030;265;24229;-78
2022/10/18 00:37:09;;;;;;;6.27;4.90;;;16.70;99.90;16.10;100962;;;;533567;264;24283;-80
2022/10/18 00:39:37;;;;;;;5.50;4.03;;;16.70;99.90;16.20;100961;;;;536100;265;24225;-77
2022/10/18 00:42:08;;;;;;;4.27;3.93;;;16.70;99.90;16.20;100957;;;;551182;255;24201;-78
2022/10/18 00:44:33;;;;;;;7.17;3.80;;;16.80;99.90;16.20;100962;;;;572773;250;24104;-79
2022/10/18 00:47:11;;;;;;;4.03;3.53;;;16.80;99.90;16.20;100955;;;;553963;255;24105;-79
2022/10/18 00:49:44;;;;;;;3.73;3.47;;;16.80;99.90;16.20;100958;;;;554091;255;24123;-80
2022/10/18 00:52:24;;;;;;;5.23;3.47;;;16.80;99.90;16.20;100945;;;;555861;253;24144;-79
2022/10/18 00:54:52;;;;;;;3.63;3.27;;;16.80;99.90;16.20;100954;;;;559045;255;24146;-80
2022/10/18 00:57:19;;;;;;;3.77;3.47;;;16.80;99.90;16.20;100950;;;;574181;250;25143;-80
2022/10/18 00:59:48;;;;;;;3.43;3.13;;;16.80;99.90;16.30;100947;;;;563874;250;24088;-77
2022/10/18 01:02:17;;;;;;;10.10;3.00;;;16.80;99.90;16.30;100946;;;;572199;244;24120;-77
2022/10/18 01:04:44;;;;;;;3.30;3.10;;;16.90;99.90;16.30;100950;;;;563804;250;24129;-78
2022/10/18 01:07:42;;;;;;;3.20;2.80;;;16.90;99.90;16.40;100942;;;;565836;250;24241;-77
2022/10/18 01:11:05;;;;;;;4.87;2.30;;;16.90;99.90;16.30;100940;;;;571893;250;24118;-76
2022/10/18 01:13:58;;;;;;;4.40;2.93;;;16.90;99.90;16.30;100943;;;;563953;250;24110;-79
2022/10/18 01:16:29;;;;;;;2.77;2.40;;;16.90;99.90;16.30;100932;;;;563725;250;25344;-79
2022/10/18 01:18:58;;;;;;;2.40;2.20;;;16.90;99.90;16.30;100943;;;;563162;250;24120;-79
2022/10/18 01:21:32;;;;;;;2.33;2.10;;;16.90;99.90;16.30;100939;;;;557140;250;24081;-76
2022/10/18 01:24:36;;;;;;;2.57;2.37;;;16.80;99.90;16.30;100933;;;;563627;249;24116;-76
2022/10/18 01:27:41;;;;;;;2.70;2.50;;;16.80;99.90;16.20;100938;;;;563971;250;24097;-77
2022/10/18 01:30:40;;;;;;;3.13;2.70;;;16.80;99.90;16.20;100938;;;;561828;255;24140;-77
2022/10/18 01:33:28;;;;;;;4.30;2.37;;;16.70;99.90;16.10;100949;;;;558824;255;24107;-77
2022/10/18 01:36:05;;;;;;;3.00;2.73;;;16.70;99.90;16.10;100960;;;;558343;255;24157;-76
2022/10/18 01:38:36;;;;;;;2.90;2.70;;;16.70;99.90;16.10;100952;;;;558766;250;24170;-76
2022/10/18 01:41:04;;;;;;;3.73;2.97;;;16.60;99.90;16.10;100957;;;;553127;254;24116;-75
2022/10/18 01:43:30;;;;;;;5.00;2.80;;;16.60;99.90;16.10;100948;;;;553301;255;24164;-76
2022/10/18 01:45:59;;;;;;;4.40;2.90;;;16.60;99.90;16.10;100945;;;;573443;250;24093;-77
2022/10/18 01:48:27;;;;;;;3.17;2.87;;;16.60;99.90;16.10;100941;;;;553860;255;24147;-74
2022/10/18 01:50:55;;;;;;;2.90;2.70;;;16.70;99.90;16.10;100943;;;;563541;250;24125;-75
2022/10/18 01:53:23;;;;;;;2.57;2.37;;;16.60;99.90;16.10;100942;;;;559717;254;24119;-75
2022/10/18 01:56:06;;;;;;;1.97;1.80;;;16.60;99.90;16.10;100941;;;;563629;249;24136;-75
2022/10/18 01:58:49;;;;;;;2.73;2.53;;;16.70;99.90;16.00;100937;;;;563128;254;24118;-76
2022/10/18 02:01:41;;;;;;;2.63;2.50;;;16.70;99.90;16.00;100944;;;;553658;255;24140;-74
2022/10/18 02:04:55;;;;;;;2.57;2.37;;;16.60;99.90;15.90;100938;;;;553558;255;24163;-75
2022/10/18 02:07:27;;;;;;;2.87;2.30;;;16.50;99.90;15.90;100926;;;;556456;255;24112;-76
2022/10/18 02:10:01;;;;;;;4.03;3.08;;;16.50;99.90;15.90;100922;;;;568986;244;35319;-74
2022/10/18 02:12:28;;;;;;;2.93;2.73;;;16.50;99.90;15.80;100942;;;;563549;246;24103;-76
2022/10/18 02:14:57;;;;;;;2.30;2.10;;;16.40;99.90;15.80;100944;;;;563837;250;25130;-75
2022/10/18 02:17:26;;;;;;;3.80;2.33;;;16.40;99.90;15.80;100955;;;;563776;249;24103;-75
2022/10/18 02:19:54;;;;;;;5.00;2.40;;;16.40;99.90;15.80;100943;;;;563598;250;24152;-75
2022/10/18 02:22:22;;;;;;;2.93;2.60;;;16.40;99.90;15.70;100950;;;;563832;250;24084;-76
2022/10/18 02:24:49;;;;;;;2.97;2.67;;;16.30;99.90;15.70;100949;;;;563692;245;24093;-75
2022/10/18 02:27:21;;;;;;;2.70;2.50;;;16.30;99.90;15.70;100941;;;;563805;250;24151;-75
2022/10/18 02:29:45;;;;;;;2.43;2.27;;;16.30;99.90;15.70;100957;;;;563134;250;24088;-74
2022/10/18 02:32:28;;;;;;;3.73;3.17;;;16.30;99.90;15.70;100973;;;;572799;240;24150;-81
2022/10/18 02:34:57;;;;;;;3.60;3.27;;;16.30;99.90;15.60;100964;;;;564060;249;24118;-83
2022/10/18 02:37:25;;;;;;;2.70;2.50;;;16.20;99.90;15.60;100973;;;;568073;249;24103;-83
2022/10/18 02:39:53;;;;;;;3.10;2.90;;;16.20;99.90;15.60;100980;;;;567708;249;24108;-81
2022/10/18 02:42:24;;;;;;;5.40;2.77;;;16.20;99.90;15.60;100964;;;;566966;249;24186;-81
2022/10/18 02:44:49;;;;;;;3.43;2.07;;;16.20;99.90;15.50;100977;;;;553685;255;24144;-81
2022/10/18 02:47:17;;;;;;;2.10;1.90;;;16.10;99.90;15.50;100981;;;;576007;249;24212;-82
2022/10/18 02:49:45;;;;;;;1.80;1.73;;;16.10;99.90;15.50;100983;;;;568952;249;24097;-82
2022/10/18 02:52:13;;;;;;;3.37;1.90;;;16.10;99.90;15.50;100986;;;;567521;249;24115;-82
2022/10/18 02:54:41;;;;;;;4.10;2.20;;;16.10;99.90;15.50;100998;;;;568978;249;24158;-82
2022/10/18 02:57:09;;;;;;;2.87;1.90;;;16.10;99.90;15.50;100996;;;;568868;249;24123;-81
2022/10/18 02:59:37;;;;;;;1.57;1.47;;;16.10;99.90;15.40;100989;;;;569111;246;24078;-82
2022/10/18 03:02:05;;;;;;;1.50;1.40;;;16.00;99.90;15.40;100984;;;;568882;249;24117;-83
2022/10/18 03:04:33;;;;;;;2.07;1.70;;;16.00;99.90;15.40;100991;;;;576938;244;24105;-81
2022/10/18 03:07:01;;;;;;;1.80;1.70;;;16.00;99.90;15.30;100983;;;;569897;248;24083;-81
2022/10/18 03:09:29;;;;;;;1.83;1.73;;;15.90;99.90;15.30;100986;;;;569655;249;24116;-84
2022/10/18 03:11:57;;;;;;;3.17;1.80;;;15.90;99.90;15.30;100990;;;;570182;246;24078;-83
2022/10/18 03:14:25;;;;;;;2.00;1.80;;;15.90;99.90;15.30;100983;;;;563435;248;24137;-82
2022/10/18 03:16:52;;;;;;;1.77;1.67;;;15.90;99.90;15.20;100978;;;;551668;260;24226;-82
2022/10/18 03:19:20;;;;;;;2.00;1.80;;;15.90;99.90;15.20;100982;;;;555637;254;24201;-82
2022/10/18 03:21:49;;;;;;;1.93;1.83;;;15.80;99.90;15.20;100988;;;;562616;254;24121;-83
2022/10/18 03:24:17;;;;;;;2.93;1.80;;;15.80;99.90;15.20;100990;;;;562428;255;26341;-83
2022/10/18 03:26:48;;;;;;;2.07;1.87;;;15.80;99.90;15.10;100981;;;;551339;260;24211;-83
2022/10/18 03:29:13;;;;;;;1.60;1.50;;;15.80;99.90;15.10;100993;;;;563447;250;24172;-81
2022/10/18 03:31:41;;;;;;;1.73;1.50;;;15.70;99.90;15.10;100998;;;;562429;250;24120;-83
2022/10/18 03:34:09;;;;;;;1.73;1.63;;;15.70;99.90;15.00;100992;;;;562321;255;24119;-83
2022/10/18 03:36:37;;;;;;;2.07;1.97;;;15.70;99.90;15.00;100982;;;;551493;260;24290;-83
2022/10/18 03:39:04;;;;;;;2.67;2.13;;;15.60;99.90;15.00;100986;;;;555137;254;24147;-84
2022/10/18 03:41:32;;;;;;;2.43;2.23;;;15.60;99.90;15.00;100989;;;;562187;250;24139;-84
2022/10/18 03:44:00;;;;;;;2.70;2.40;;;15.60;99.90;14.90;100983;;;;551020;260;24212;-84
2022/10/18 03:46:32;;;;;;;1.90;1.80;;;15.60;99.90;14.90;100992;;;;563030;251;24253;-84
2022/10/18 03:48:56;;;;;;;2.20;2.00;;;15.50;99.90;14.90;101004;;;;544191;259;24123;-86
2022/10/18 03:51:24;;;;;;;2.17;1.90;;;15.50;99.90;14.90;101006;;;;553750;255;24104;-85
2022/10/18 03:53:52;;;;;;;3.90;2.37;;;15.50;99.90;14.80;101014;;;;562122;255;24111;-85
2022/10/18 03:56:20;;;;;;;2.40;2.20;;;15.50;99.90;14.80;101013;;;;550989;260;24186;-82
2022/10/18 03:58:48;;;;;;;2.63;2.43;;;15.40;99.90;14.80;100993;;;;563460;255;24153;-83
2022/10/18 04:01:16;;;;;;;2.23;2.07;;;15.40;99.90;14.80;101004;;;;562008;253;24096;-82
2022/10/18 04:03:44;;;;;;;5.40;2.30;;;15.40;99.90;14.80;101012;;;;550982;260;24187;-85
2022/10/18 04:06:12;;;;;;;2.37;2.27;;;15.40;99.90;14.70;101020;;;;563135;255;24138;-84
2022/10/18 04:08:40;;;;;;;1.97;1.87;;;15.40;99.90;14.70;101021;;;;561930;255;24121;-83
2022/10/18 04:11:10;;;;;;;3.57;2.10;;;15.30;99.90;14.70;101028;;;;551022;260;24223;-85
2022/10/18 04:13:35;;;;;;;2.83;1.90;;;15.30;99.90;14.70;101015;;;;563021;255;24161;-86
2022/10/18 04:16:07;;;;;;;2.40;2.20;;;15.30;99.90;14.70;101023;;;;562749;254;24130;-84
2022/10/18 04:18:31;;;;;;;2.50;1.87;;;15.30;99.90;14.70;101016;;;;553441;254;25207;-86
2022/10/18 04:20:59;;;;;;;4.23;1.97;;;15.30;99.90;14.70;101008;;;;544096;259;24143;-86
2022/10/18 04:23:27;;;;;;;2.57;1.83;;;15.30;99.90;14.70;101017;;;;544684;259;24180;-87
2022/10/18 04:25:55;;;;;;;2.73;2.03;;;15.30;99.90;14.60;101007;;;;562585;255;24113;-84
2022/10/18 04:28:23;;;;;;;3.73;1.87;;;15.30;99.90;14.60;101014;;;;551823;260;24207;-84
2022/10/18 04:30:53;;;;;;;3.60;2.20;;;15.30;99.90;14.60;101013;;;;563748;254;24186;-85
2022/10/18 04:33:22;;;;;;;4.70;2.10;;;15.20;99.90;14.60;101023;;;;562399;255;24135;-85
2022/10/18 04:35:49;;;;;;;8.40;2.50;;;15.20;99.90;14.60;101015;;;;551381;260;24277;-85
2022/10/18 04:38:17;;;;;;;2.87;2.60;;;15.20;99.90;14.50;101023;;;;550510;254;42411;-84
2022/10/18 04:40:45;;;;;;;5.32;2.97;;;15.20;99.90;14.50;101033;;;;540083;259;46399;-85
2022/10/18 04:43:13;;;;;;;4.33;2.27;;;15.10;99.90;14.50;101043;;;;553987;255;24122;-84
2022/10/18 04:45:42;;;;;;;3.33;2.03;;;15.10;99.90;14.50;101053;;;;562139;255;24149;-84
2022/10/18 04:48:13;;;;;;;4.63;3.00;;;15.10;99.90;14.50;101054;;;;543320;260;24249;-83
2022/10/18 04:50:38;;;;;;;3.83;2.43;;;15.10;99.90;14.50;101047;;;;563175;251;24169;-85
2022/10/18 04:53:06;;;;;;;4.20;2.60;;;15.20;99.90;14.50;101038;;;;562081;255;24123;-82
2022/10/18 04:55:34;;;;;;;4.60;2.27;;;15.10;99.90;14.60;101030;;;;550928;256;24227;-85
2022/10/18 04:58:02;;;;;;;2.67;2.47;;;15.20;99.90;14.60;101019;;;;563263;255;24160;-86
2022/10/18 05:00:30;;;;;;;4.77;2.50;;;15.20;99.90;14.60;101023;;;;562117;253;24107;-83
2022/10/18 05:02:58;;;;;;;6.53;2.30;;;15.20;99.90;14.60;101030;;;;550964;260;24226;-83
2022/10/18 05:05:26;;;;;;;3.47;2.47;;;15.20;99.90;14.60;101035;;;;554988;255;24164;-83
2022/10/18 05:07:55;;;;;;;4.27;3.00;;;15.20;99.90;14.50;101062;;;;562283;250;24121;-81
2022/10/18 05:10:23;;;;;;;5.63;2.50;;;15.20;99.90;14.60;101072;;;;551404;260;24175;-82
2022/10/18 05:12:51;;;;;;;8.20;3.03;;;15.20;99.90;14.60;101071;;;;563813;255;24187;-82
2022/10/18 05:15:19;;;;;;;6.63;3.13;;;15.20;99.90;14.60;101065;;;;562734;255;24099;-82
2022/10/18 05:17:47;;;;;;;2.57;2.37;;;15.20;99.90;14.60;101070;;;;551360;260;24237;-82
2022/10/18 05:20:15;;;;;;;4.63;2.40;;;15.30;99.90;14.60;101058;;;;563635;251;24197;-83
2022/10/18 05:22:43;;;;;;;6.10;2.27;;;15.30;99.90;14.70;101049;;;;560776;250;24137;-83
2022/10/18 05:25:11;;;;;;;4.43;2.20;;;15.30;99.90;14.60;101044;;;;547023;255;24224;-82
2022/10/18 05:27:39;;;;;;;3.53;2.63;;;15.30;99.90;14.60;101038;;;;554971;254;24203;-86
2022/10/18 05:30:07;;;;;;;5.60;2.80;;;15.30;99.90;14.60;101038;;;;555280;254;24179;-86
2022/10/18 05:32:36;;;;;;;10.57;5.30;;;15.20;99.90;14.60;101052;;;;554994;255;24128;-87
2022/10/18 05:35:07;;;;;;;5.73;3.53;;;15.20;99.90;14.60;101062;;;;554908;255;24275;-82
2022/10/18 05:37:32;;;;;;;3.07;2.87;;;15.20;99.90;14.60;101058;;;;554273;255;24190;-82
2022/10/18 05:40:00;;;;;;;4.47;3.03;;;15.20;99.90;14.60;101063;;;;554720;255;24190;-82
2022/10/18 05:42:28;;;;;;;4.57;2.67;;;15.20;99.90;14.60;101069;;;;554628;255;24155;-86
2022/10/18 05:44:56;;;;;;;6.03;2.80;;;15.20;99.90;14.60;101064;;;;554586;255;24139;-83
2022/10/18 05:47:24;;;;;;;3.13;2.60;;;15.20;99.90;14.60;101072;;;;554422;255;24221;-85
2022/10/18 05:49:52;;;;;;;10.23;3.53;;;15.30;99.90;14.60;101073;;;;554397;255;24098;-89
2022/10/18 05:52:20;;;;;;;4.63;3.00;;;15.30;99.90;14.70;101066;;;;554506;255;24130;-85
2022/10/18 05:54:48;;;;;;;7.73;2.97;;;15.30;99.90;14.70;101084;;;;554467;254;24114;-86
2022/10/18 05:57:17;;;;;;;4.20;2.53;;;15.40;99.90;14.70;101089;;;;554442;255;24139;-83
2022/10/18 05:59:45;;;;;;;4.97;3.07;;;15.40;99.90;14.80;101077;;;;554533;255;24202;-82
2022/10/18 06:02:13;;;;;;;4.67;2.43;;;15.40;99.90;14.80;101069;;;;542778;263;24223;-82
2022/10/18 06:04:41;;;;;;;6.83;2.57;;;15.40;99.90;14.80;101071;;;;535523;260;24316;-86
2022/10/18 06:07:12;;;;;;;4.90;2.47;;;15.50;99.90;14.80;101068;;;;535077;264;24222;-82
2022/10/18 06:09:37;;;;;;;5.90;2.63;;;15.50;99.90;14.80;101065;;;;553253;256;24197;-83
2022/10/18 06:12:09;;;;;;;8.13;2.53;;;15.50;99.90;14.90;101068;;;;549051;261;24244;-82
2022/10/18 06:14:33;;;;;;;2.60;2.40;;;15.50;99.90;14.90;101066;;;;541192;261;24255;-81
2022/10/18 06:17:00;;;;;;;10.53;3.47;;;15.50;99.90;14.90;101075;;;;549715;261;24203;-83
2022/10/18 06:19:28;;;;;;;6.23;3.00;;;15.60;99.90;14.90;101080;;;;550175;261;24273;-78
2022/10/18 06:21:56;;;;;;;7.90;3.20;;;15.60;99.90;15.00;101084;;;;549634;257;24168;-78
2022/10/18 06:24:25;;;;;;;4.03;3.10;;;15.60;99.90;15.00;101081;;;;549377;261;24191;-78
2022/10/18 06:26:52;;;;;;;5.67;3.37;;;15.60;99.90;15.00;101080;;;;549320;258;24172;-77
2022/10/18 06:29:20;;;;;;;6.30;2.40;;;15.70;99.90;15.00;101085;;;;549237;261;24201;-79
2022/10/18 06:31:49;;;;;;;4.00;2.50;;;15.70;99.90;15.10;101083;;;;549350;261;24243;-78
2022/10/18 06:34:17;;;;;;;4.00;2.50;;;15.70;99.90;15.10;101089;;;;549273;261;24184;-78
2022/10/18 06:36:45;;;;;;;3.97;2.73;;;15.70;99.90;15.10;101101;;;;541409;261;24181;-80
2022/10/18 06:39:12;;;;;;;4.40;2.73;;;15.80;99.90;15.10;101106;;;;550074;259;24214;-80
2022/10/18 06:41:40;;;;;;;6.20;2.50;;;15.80;99.90;15.10;101096;;;;550377;261;24165;-79
2022/10/18 06:44:12;;;;;;;4.23;2.93;;;15.80;99.90;15.20;101093;;;;550035;261;24193;-81
2022/10/18 06:46:36;;;;;;;4.63;2.87;;;15.80;99.90;15.20;101106;;;;542072;261;24195;-78
2022/10/18 06:49:04;;;;;;;5.43;2.70;;;15.80;99.90;15.20;101094;;;;549901;257;24223;-87
2022/10/18 06:51:32;;;;;;;8.73;3.00;;;15.90;99.90;15.30;101094;;;;549825;261;24184;-87
2022/10/18 06:54:00;;;;;;;6.50;2.83;;;15.90;99.90;15.30;101093;;;;541725;261;24182;-87
2022/10/18 06:56:28;;;;;;;10.90;3.43;;;15.90;99.90;15.30;101095;;;;549669;261;24170;-87
2022/10/18 06:58:56;;;;;;;4.03;2.37;;;16.00;99.90;15.30;101101;;;;550965;255;24184;-83
2022/10/18 07:01:24;;;;;;;4.07;2.90;;;16.00;99.90;15.40;101113;;;;563102;250;24163;-88
2022/10/18 07:03:54;;;;;;;5.00;2.60;;;16.00;99.90;15.40;101096;;;;575239;244;24173;-88
2022/10/18 07:06:20;;;;;;;4.07;2.83;;;16.00;99.90;15.40;101101;;;;561779;255;24110;-89
2022/10/18 07:08:51;;;;;;;3.63;2.17;;;16.00;99.90;15.40;101111;;;;575245;247;24101;-89
2022/10/18 07:11:18;;;;;;;6.60;3.37;;;16.00;99.90;15.40;101094;;;;561750;255;24212;-84
2022/10/18 07:13:46;;;;;;;4.67;2.53;;;16.00;99.90;15.50;101106;;;;561185;253;24180;-88
2022/10/18 07:16:14;;;;;;;4.13;2.63;;;16.10;99.90;15.50;101102;;;;560685;252;24112;-88
2022/10/18 07:18:42;;;;;;;5.95;3.42;;;16.10;99.90;15.60;101103;;;;549384;255;57369;-88
2022/10/18 07:21:14;;;;;;;8.53;2.70;;;16.20;99.90;15.60;101116;;;;565286;249;24107;-86
2022/10/18 07:23:42;;;;;;;4.87;2.70;;;16.30;99.90;15.70;101106;;;;552884;255;24191;-89
2022/10/18 07:26:13;;;;;;;8.33;2.83;;;16.30;99.90;15.80;101115;;;;570140;252;24239;-89
2022/10/18 07:28:42;;;;;;;4.30;2.43;;;16.50;99.90;15.80;101109;;;;569229;252;24094;-87
2022/10/18 07:31:10;;;;;;;3.97;2.70;;;16.40;99.90;15.90;101108;;;;560994;252;24116;-89
2022/10/18 07:33:37;;;;;;;8.50;3.23;;;16.50;99.90;16.00;101115;;;;569924;252;24082;-89
2022/10/18 07:36:05;;;;;;;2.83;2.23;;;16.60;99.90;16.10;101124;;;;561559;252;24070;-88
2022/10/18 07:38:36;;;;;;;6.37;2.60;;;16.70;99.90;16.20;101124;;;;570014;251;24095;-89
2022/10/18 07:41:05;;;;;;;5.00;2.47;;;16.80;99.90;16.30;101122;;;;569903;251;24126;-88
2022/10/18 07:43:29;;;;;;;2.90;2.17;;;16.80;99.90;16.30;101120;;;;569827;252;24142;-83
2022/10/18 07:45:57;;;;;;;5.73;2.30;;;16.90;99.90;16.30;101124;;;;561661;252;24109;-83
2022/10/18 07:48:26;;;;;;;5.03;2.50;;;17.00;99.90;16.40;101124;;;;570045;252;24162;-77
2022/10/18 07:50:54;;;;;;;5.00;2.40;;;17.10;99.90;16.40;101126;;;;570987;250;24113;-80
2022/10/18 07:53:22;;;;;;;4.87;2.57;;;17.00;99.90;16.40;101131;;;;562619;251;24097;-79
2022/10/18 07:55:50;;;;;;;4.57;2.03;;;17.00;99.90;16.40;101132;;;;562397;251;24078;-81
2022/10/18 07:58:18;;;;;;;6.17;2.57;;;17.00;99.90;16.30;101132;;;;562285;251;24164;-82
2022/10/18 08:00:46;;;;;;;6.37;2.73;;;16.90;99.90;16.30;101135;;;;562156;251;24198;-82
2022/10/18 08:03:14;;;;;;;6.70;2.63;;;16.90;99.90;16.20;101136;;;;562140;251;24078;-81
2022/10/18 08:05:42;;;;;;;8.17;2.80;;;16.90;99.90;16.20;101137;;;;562189;251;24093;-81
2022/10/18 08:08:10;;;;;;;8.27;3.00;;;16.80;99.90;16.20;101132;;;;562099;252;24103;-80
2022/10/18 08:10:38;;;;;;;5.63;2.37;;;16.80;99.90;16.10;101131;;;;561996;252;24107;-80
2022/10/18 08:13:07;;;;;;;5.63;2.73;;;16.70;99.90;16.10;101128;;;;561754;252;24135;-85
2022/10/18 08:15:36;;;;;;;5.30;2.90;;;16.70;99.90;16.10;101123;;;;569816;252;24121;-81
2022/10/18 08:18:04;;;;;;;5.47;2.50;;;16.70;99.90;16.10;101119;;;;561894;252;24126;-78
2022/10/18 08:20:36;;;;;;;4.40;2.20;;;16.70;99.90;16.10;101120;;;;561948;252;24083;-79
2022/10/18 08:23:00;;;;;;;4.97;2.03;;;16.70;99.90;16.10;101125;;;;561686;252;24122;-79
2022/10/18 08:25:32;;;;;;;4.57;2.43;;;16.70;99.90;16.20;101118;;;;559878;255;24161;-77
2022/10/18 08:27:56;;;;;;;9.47;2.93;;;16.70;99.90;16.20;101115;;;;548134;256;24156;-83
2022/10/18 08:30:24;;;;;;;6.70;2.70;;;16.80;99.90;16.30;101114;;;;552540;259;24163;-80
2022/10/18 08:32:52;;;;;;;7.83;3.60;;;16.90;99.90;16.50;101112;;;;552640;259;24152;-81
2022/10/18 08:35:20;;;;;;;4.67;2.37;;;17.00;99.90;16.60;101106;;;;533875;264;24197;-79
2022/10/18 08:37:49;;;;;;;6.10;2.70;;;17.30;99.90;16.70;101104;;;;553718;259;24195;-83
2022/10/18 08:40:17;;;;;;;12.43;3.20;;;17.40;99.90;16.80;101105;;;;535158;264;24242;-80
2022/10/18 08:43:16;;;;;;;7.50;2.50;;;17.50;99.90;17.00;101100;;;;552580;259;25179;-77
2022/10/18 08:45:44;;;;;;;5.57;2.87;;;17.50;99.90;17.20;101101;;;;552209;259;24184;-77
2022/10/18 08:48:17;;;;;;;8.33;2.67;;;17.70;99.90;17.30;101102;;;;542443;260;24172;-77
2022/10/18 08:50:45;;;;;;;8.90;2.97;;;17.90;99.90;17.60;101102;;;;553600;255;24138;-83
2022/10/18 08:53:13;;;;;;;11.37;3.23;;;18.10;99.90;17.80;101100;;;;562283;253;24117;-79
2022/10/18 08:55:51;;;;;;;8.70;2.40;;;18.30;99.90;18.00;101095;;;;543183;260;24190;-79
2022/10/18 08:58:25;;;;;;;5.43;2.87;;;18.50;99.90;18.30;101101;;;;555136;255;24190;-80
2022/10/18 09:01:09;;;;;;;9.23;2.47;;;18.80;99.90;18.50;101107;;;;554148;255;24140;-86
2022/10/18 09:04:08;;;;;;;7.20;2.87;;;19.00;99.90;18.60;101095;;;;548604;259;24181;-84
2022/10/18 09:06:38;;;;;;;6.50;2.83;;;19.20;99.90;18.80;101099;;;;545048;259;24167;-83
2022/10/18 09:09:12;;;;;;;6.07;2.70;;;19.40;99.90;19.20;101096;;;;562305;255;24137;-84
2022/10/18 09:12:16;;;;;;;4.67;3.40;;;19.70;99.90;19.40;101105;;;;551944;255;24245;-84
2022/10/18 09:15:00;;;;;;;9.80;3.23;;;19.90;99.90;19.50;101104;;;;562403;255;24121;-82
2022/10/18 09:18:01;;;;;;;6.80;2.70;;;20.10;99.90;19.50;101104;;;;552880;258;24166;-80
2022/10/18 09:20:32;;;;;;;4.73;2.47;;;20.10;99.90;19.50;101107;;;;547154;258;24207;-82
2022/10/18 09:23:18;;;;;;;5.93;2.20;;;20.10;99.90;19.40;101102;;;;547357;258;24164;-82
2022/10/18 09:25:46;;;;;;;6.50;3.00;;;20.00;99.90;19.40;101091;;;;555543;258;24152;-86
2022/10/18 09:28:22;;;;;;;13.80;2.57;;;20.00;99.90;19.50;101092;;;;546327;258;24158;-82
2022/10/18 09:31:20;;;;;;;8.00;2.37;;;20.00;99.90;19.70;101104;;;;547112;258;24201;-84
2022/10/18 09:34:03;;;;;;;6.60;2.10;;;20.20;99.90;19.80;101106;;;;536593;260;23223;-85
2022/10/18 09:36:29;;;;;;;5.53;2.03;;;20.30;99.90;20.00;101099;;;;552594;255;24160;-84
2022/10/18 09:38:56;;;;;;;7.97;2.10;;;20.50;99.90;20.10;101086;;;;550423;256;24153;-81
2022/10/18 09:41:45;;;;;;;6.10;1.93;;;20.70;99.90;20.70;101090;;;;548897;258;24170;-84
2022/10/18 09:44:22;;;;;;;8.97;1.90;;;21.10;99.90;21.90;101083;;;;547891;258;24207;-81
2022/10/18 09:46:50;;;;;;;6.70;2.10;;;22.20;99.90;22.80;101085;;;;555898;257;24170;-83
2022/10/18 09:49:26;;;;;;;2.40;1.80;;;23.20;99.90;23.20;101074;;;;555012;258;24153;-82
2022/10/18 09:51:57;;;;;;;5.53;2.20;;;23.80;99.90;22.90;101082;;;;547690;258;24195;-84
2022/10/18 09:54:31;;;;;;;5.67;2.00;;;23.80;99.90;22.30;101078;;;;547816;258;24151;-82
2022/10/18 09:57:07;;;;;;;6.83;2.17;;;23.40;99.90;21.90;101074;;;;547471;258;24129;-80
2022/10/18 09:59:48;;;;;;;4.03;2.00;;;23.00;99.90;21.80;101074;;;;547455;258;24163;-81
2022/10/18 10:02:16;;;;;;;4.77;1.73;;;22.70;99.90;21.60;101070;;;;555972;257;24153;-81
2022/10/18 10:04:44;;;;;;;4.70;1.83;;;22.50;99.90;21.60;101069;;;;547945;258;24173;-81
2022/10/18 10:07:17;;;;;;;4.87;1.73;;;22.40;99.90;21.80;101083;;;;548631;258;24230;-82
2022/10/18 10:09:58;;;;;;;4.00;1.83;;;22.70;99.90;22.10;101080;;;;548302;258;24128;-81
2022/10/18 10:12:34;;;;;;;5.23;1.67;;;22.70;99.90;22.30;101091;;;;546533;258;24142;-82
2022/10/18 10:15:24;;;;;;;4.63;1.63;;;23.00;99.90;22.10;101071;;;;549493;258;24197;-82
2022/10/18 10:18:03;;;;;;;8.30;1.60;;;22.60;99.90;21.60;101074;;;;549987;258;24178;-80
2022/10/18 10:20:46;;;;;;;4.50;1.57;;;22.60;99.90;21.00;101080;;;;556887;257;24171;-80
2022/10/18 10:23:25;;;;;;;5.43;1.80;;;22.10;99.90;20.50;101081;;;;546937;258;24196;-81
2022/10/18 10:26:02;;;;;;;3.30;2.20;;;21.50;99.90;20.10;101075;;;;539623;262;24159;-81
2022/10/18 10:28:30;;;;;;;3.97;1.43;;;21.10;99.90;19.90;101072;;;;538972;262;24233;-82
2022/10/18 10:31:19;;;;;;;8.40;1.67;;;20.80;99.90;19.70;101082;;;;538830;262;24206;-80
2022/10/18 10:33:51;;;;;;;8.53;1.87;;;20.50;99.90;19.70;101086;;;;537075;262;24199;-79
2022/10/18 10:36:18;;;;;;;6.13;1.53;;;20.30;99.90;19.60;101084;;;;538324;262;24164;-80
2022/10/18 10:38:46;;;;;;;6.83;1.80;;;20.20;99.90;19.40;101082;;;;538747;262;23230;-79
2022/10/18 10:41:20;;;;;;;3.90;2.07;;;20.00;99.90;19.20;101079;;;;537896;262;24176;-85
2022/10/18 10:43:48;;;;;;;8.43;2.50;;;19.90;99.90;19.20;101081;;;;539124;262;24213;-83
2022/10/18 10:46:17;;;;;;;7.37;1.73;;;19.80;99.90;19.30;101081;;;;539340;262;24218;-81
2022/10/18 10:48:56;;;;;;;7.70;1.80;;;19.80;99.90;19.20;101075;;;;539059;262;24195;-86
2022/10/18 10:51:32;;;;;;;4.77;1.87;;;19.70;99.90;19.20;101074;;;;546433;260;24195;-84
2022/10/18 10:54:15;;;;;;;2.37;1.40;;;19.80;99.90;19.20;101070;;;;538539;263;24164;-82
2022/10/18 10:57:04;;;;;;;2.80;1.63;;;19.80;99.90;19.30;101067;;;;541962;258;24162;-83
2022/10/18 10:59:44;;;;;;;4.20;2.00;;;19.80;99.90;19.30;101069;;;;556393;257;24189;-81
2022/10/18 11:02:16;;;;;;;2.93;1.50;;;19.80;99.90;19.30;101073;;;;547495;258;24198;-83
2022/10/18 11:04:43;;;;;;;3.90;1.73;;;19.80;99.90;19.20;101072;;;;553432;258;24203;-80
2022/10/18 11:07:35;;;;;;;4.90;1.57;;;19.70;99.90;19.10;101067;;;;556567;258;24200;-80
2022/10/18 11:10:21;;;;;;;2.57;1.40;;;19.70;99.90;19.10;101073;;;;548678;258;24148;-79
2022/10/18 11:13:01;;;;;;;2.13;1.40;;;19.70;99.90;19.10;101067;;;;548362;258;24265;-78
2022/10/18 11:15:27;;;;;;;5.63;2.90;;;19.60;99.90;19.00;101069;;;;548370;257;24150;-79
2022/10/18 11:18:28;;;;;;;6.53;1.47;;;19.60;99.90;18.90;101050;;;;548269;258;24173;-81
2022/10/18 11:21:20;;;;;;;3.37;1.47;;;19.50;99.90;18.80;101055;;;;546964;262;24171;-82
2022/10/18 11:23:48;;;;;;;6.10;2.17;;;19.40;99.90;18.80;101043;;;;537348;262;24173;-82
2022/10/18 11:26:43;;;;;;;4.60;1.90;;;19.30;99.90;18.80;101041;;;;564504;253;24128;-81
2022/10/18 11:29:26;;;;;;;2.43;1.33;;;19.30;99.90;18.70;101042;;;;555133;254;24103;-81